Time;durP1;ratioP1;P1;durP2;ratioP2;P2;SDS_P1;SDS_P2;PMS_P1;PMS_P2;Temp;Humidity;BMP_temperature;BMP_pressure;BME280_temperature;BME280_humidity;BME280_pressure;Samples;Min_cycle;Max_cycle;Signal;HPM_P1;HPM_P2
2023/08/26 00:00:26;;;;;;;7.53;2.30;;;;;;;;;;5034464;28;20822;-84
2023/08/26 00:02:51;;;;;;;7.35;1.80;;;;;;;;;;5046499;28;20020;-84
2023/08/26 00:05:25;;;;;;;5.68;1.70;;;;;;;;;;5042393;28;20017;-84
2023/08/26 00:07:51;;;;;;;6.50;1.60;;;;;;;;;;5046702;28;20036;-84
2023/08/26 00:10:16;;;;;;;3.58;1.67;;;;;;;;;;5038532;28;20018;-83
2023/08/26 00:12:41;;;;;;;5.80;1.67;;;;;;;;;;5040419;28;20486;-84
2023/08/26 00:15:07;;;;;;;5.28;1.70;;;;;;;;;;5035895;28;20024;-84
2023/08/26 00:17:32;;;;;;;3.45;1.50;;;;;;;;;;5034033;28;20021;-85
2023/08/26 00:20:00;;;;;;;4.30;1.85;;;;;;;;;;5035201;28;20089;-85
2023/08/26 00:22:26;;;;;;;12.45;1.50;;;;;;;;;;5034814;28;20380;-83
2023/08/26 00:24:51;;;;;;;2.70;1.30;;;;;;;;;;5035132;28;20017;-84
2023/08/26 00:27:16;;;;;;;4.45;1.55;;;;;;;;;;5054190;28;20048;-85
2023/08/26 00:29:42;;;;;;;4.88;1.92;;;;;;;;;;5072204;28;20023;-85
2023/08/26 00:32:10;;;;;;;6.93;2.10;;;;;;;;;;5034163;28;20017;-85
2023/08/26 00:34:43;;;;;;;7.35;1.85;;;;;;;;;;5033937;28;20021;-85
2023/08/26 00:37:12;;;;;;;7.95;1.70;;;;;;;;;;5039832;28;20066;-84
2023/08/26 00:39:37;;;;;;;7.25;1.75;;;;;;;;;;5038998;28;20056;-85
2023/08/26 00:42:03;;;;;;;9.85;2.15;;;;;;;;;;5032849;28;20105;-84
2023/08/26 00:44:28;;;;;;;4.55;1.90;;;;;;;;;;5034305;28;20104;-84
2023/08/26 00:46:57;;;;;;;8.80;1.80;;;;;;;;;;5020406;28;20025;-85
2023/08/26 00:49:22;;;;;;;4.50;1.60;;;;;;;;;;5041217;28;20458;-84
2023/08/26 00:51:48;;;;;;;7.50;1.92;;;;;;;;;;5033376;28;20400;-85
2023/08/26 00:54:13;;;;;;;8.70;1.83;;;;;;;;;;5033241;28;20028;-85
2023/08/26 00:56:39;;;;;;;9.60;1.75;;;;;;;;;;5032263;28;20040;-85
2023/08/26 00:59:04;;;;;;;2.25;1.40;;;;;;;;;;5051076;28;20028;-85
2023/08/26 01:01:31;;;;;;;6.53;1.75;;;;;;;;;;5034291;28;20086;-85
2023/08/26 01:03:56;;;;;;;3.63;1.80;;;;;;;;;;5044333;28;20445;-84
2023/08/26 01:06:21;;;;;;;7.45;1.90;;;;;;;;;;5032719;28;20116;-84
2023/08/26 01:08:47;;;;;;;8.18;1.70;;;;;;;;;;5034056;28;20096;-84
2023/08/26 01:11:24;;;;;;;3.15;1.73;;;;;;;;;;5045733;28;20033;-85
2023/08/26 01:13:59;;;;;;;10.05;1.90;;;;;;;;;;5048247;28;20030;-85
2023/08/26 01:16:24;;;;;;;6.95;1.77;;;;;;;;;;5050870;28;20023;-84
2023/08/26 01:18:50;;;;;;;3.20;1.60;;;;;;;;;;5041311;28;20020;-84
2023/08/26 01:21:18;;;;;;;5.63;1.83;;;;;;;;;;5050592;28;20511;-84
2023/08/26 01:23:46;;;;;;;4.20;1.80;;;;;;;;;;5042807;28;20032;-84
2023/08/26 01:28:58;;;;;;;3.10;1.48;;;;;;;;;;5062711;28;20033;-84
2023/08/26 01:31:25;;;;;;;3.53;1.58;;;;;;;;;;5057499;28;20142;-84
2023/08/26 01:34:23;;;;;;;5.82;1.50;;;;;;;;;;5038964;28;20029;-84
2023/08/26 01:36:57;;;;;;;6.30;1.50;;;;;;;;;;5018313;28;20384;-85
2023/08/26 01:39:22;;;;;;;5.30;1.67;;;;;;;;;;5071276;28;20025;-85
2023/08/26 01:41:54;;;;;;;7.75;1.80;;;;;;;;;;5048650;28;20107;-84
2023/08/26 01:44:20;;;;;;;8.02;1.58;;;;;;;;;;5041052;28;20025;-83
2023/08/26 01:46:46;;;;;;;4.60;1.60;;;;;;;;;;5057258;28;20031;-86
2023/08/26 01:49:11;;;;;;;3.90;1.63;;;;;;;;;;5057965;28;20114;-85
2023/08/26 01:51:37;;;;;;;3.47;1.50;;;;;;;;;;5055174;28;20016;-84
2023/08/26 01:54:03;;;;;;;5.63;1.25;;;;;;;;;;5049859;28;20024;-84
2023/08/26 01:56:28;;;;;;;6.03;1.63;;;;;;;;;;5038071;28;20076;-85
2023/08/26 01:58:53;;;;;;;5.97;1.50;;;;;;;;;;5047836;28;20480;-84
2023/08/26 02:01:19;;;;;;;8.50;1.60;;;;;;;;;;5038971;28;20020;-85
2023/08/26 02:03:44;;;;;;;7.45;1.70;;;;;;;;;;5034839;28;20024;-84
2023/08/26 02:06:09;;;;;;;7.15;1.20;;;;;;;;;;5035677;28;20031;-85
2023/08/26 02:08:38;;;;;;;5.82;1.40;;;;;;;;;;5035616;28;20037;-84
2023/08/26 02:11:03;;;;;;;11.10;1.40;;;;;;;;;;5036675;28;20381;-85
2023/08/26 02:13:28;;;;;;;5.95;1.60;;;;;;;;;;5044790;28;20520;-85
2023/08/26 02:15:57;;;;;;;2.50;1.20;;;;;;;;;;5035639;28;20021;-84
2023/08/26 02:18:22;;;;;;;5.35;1.33;;;;;;;;;;5035922;28;20036;-85
2023/08/26 02:20:48;;;;;;;6.07;1.30;;;;;;;;;;5036172;28;20025;-84
2023/08/26 02:23:16;;;;;;;2.33;1.45;;;;;;;;;;5050035;28;20065;-85
2023/08/26 02:25:42;;;;;;;6.72;1.48;;;;;;;;;;5036338;28;20029;-84
2023/08/26 02:28:08;;;;;;;8.18;1.90;;;;;;;;;;5067755;28;20048;-85
2023/08/26 02:30:34;;;;;;;4.50;1.48;;;;;;;;;;5035204;28;20102;-84
2023/08/26 02:33:03;;;;;;;2.88;1.52;;;;;;;;;;5044862;28;20052;-85
2023/08/26 02:35:29;;;;;;;3.88;1.42;;;;;;;;;;5039811;28;20012;-85
2023/08/26 02:37:55;;;;;;;3.40;1.27;;;;;;;;;;5036495;28;20078;-85
2023/08/26 02:40:23;;;;;;;4.43;1.60;;;;;;;;;;5039025;28;20043;-84
2023/08/26 02:42:49;;;;;;;4.88;1.50;;;;;;;;;;5056989;28;20048;-83
2023/08/26 02:45:16;;;;;;;4.03;1.08;;;;;;;;;;5050191;28;20111;-84
2023/08/26 02:47:42;;;;;;;2.20;1.20;;;;;;;;;;5050768;28;20078;-84
2023/08/26 02:50:12;;;;;;;5.97;1.48;;;;;;;;;;5047329;28;20029;-85
2023/08/26 02:52:38;;;;;;;3.28;1.38;;;;;;;;;;5072735;28;20502;-84
2023/08/26 02:55:03;;;;;;;7.00;1.45;;;;;;;;;;5032151;28;20060;-85
2023/08/26 02:57:29;;;;;;;3.53;1.40;;;;;;;;;;5034663;28;20025;-85
2023/08/26 02:59:54;;;;;;;9.40;1.40;;;;;;;;;;5050976;28;20112;-85
2023/08/26 03:02:24;;;;;;;3.22;1.42;;;;;;;;;;5037304;28;20515;-84
2023/08/26 03:04:52;;;;;;;6.32;1.30;;;;;;;;;;5043881;28;20045;-85
2023/08/26 03:07:17;;;;;;;10.18;1.75;;;;;;;;;;5038734;28;20038;-85
2023/08/26 03:09:43;;;;;;;4.15;1.52;;;;;;;;;;5038097;28;20492;-84
2023/08/26 03:12:09;;;;;;;11.30;2.05;;;;;;;;;;5035142;28;20070;-85
2023/08/26 03:14:37;;;;;;;9.65;1.83;;;;;;;;;;5036947;28;20480;-85
2023/08/26 03:17:03;;;;;;;6.32;1.60;;;;;;;;;;5041205;28;20108;-85
2023/08/26 03:19:29;;;;;;;6.72;1.80;;;;;;;;;;5035691;28;20020;-84
2023/08/26 03:21:54;;;;;;;6.15;1.77;;;;;;;;;;5038530;28;20020;-85
2023/08/26 03:24:20;;;;;;;10.25;2.17;;;;;;;;;;5056652;28;20024;-84
2023/08/26 03:26:45;;;;;;;4.50;1.65;;;;;;;;;;5053461;28;20013;-86
2023/08/26 03:29:10;;;;;;;5.72;1.90;;;;;;;;;;5036749;28;20033;-85
2023/08/26 03:31:36;;;;;;;5.38;1.90;;;;;;;;;;5043854;28;20013;-83
2023/08/26 03:34:01;;;;;;;3.92;1.98;;;;;;;;;;5035331;28;20082;-86
2023/08/26 03:36:27;;;;;;;7.03;1.67;;;;;;;;;;5036031;28;20024;-85
2023/08/26 03:38:55;;;;;;;4.65;1.77;;;;;;;;;;5049873;28;20100;-85
2023/08/26 03:41:20;;;;;;;6.22;2.35;;;;;;;;;;5045307;28;20021;-86
2023/08/26 03:43:45;;;;;;;6.00;1.88;;;;;;;;;;5034364;28;20050;-85
2023/08/26 03:46:11;;;;;;;12.57;2.08;;;;;;;;;;5035207;28;20025;-86
2023/08/26 03:48:36;;;;;;;6.50;2.22;;;;;;;;;;5035379;28;20031;-85
2023/08/26 03:51:04;;;;;;;6.80;2.13;;;;;;;;;;5035450;28;20035;-86
2023/08/26 03:53:29;;;;;;;8.13;1.98;;;;;;;;;;5035599;28;20044;-86
2023/08/26 03:55:54;;;;;;;8.15;2.15;;;;;;;;;;5050366;28;20067;-85
2023/08/26 03:58:22;;;;;;;7.40;2.33;;;;;;;;;;5066488;28;20051;-85
2023/08/26 04:00:48;;;;;;;13.90;2.33;;;;;;;;;;5052623;28;20023;-84
2023/08/26 04:03:13;;;;;;;4.95;1.85;;;;;;;;;;5034940;28;20097;-84
2023/08/26 04:05:39;;;;;;;21.55;4.07;;;;;;;;;;5046189;28;20065;-83
2023/08/26 04:08:05;;;;;;;14.23;2.30;;;;;;;;;;5045909;28;20742;-87
2023/08/26 04:10:31;;;;;;;5.28;1.90;;;;;;;;;;5047202;28;20028;-85
2023/08/26 04:13:03;;;;;;;8.18;2.15;;;;;;;;;;5045640;28;20021;-86
2023/08/26 04:15:28;;;;;;;11.38;2.13;;;;;;;;;;5062647;28;20012;-85
2023/08/26 04:17:54;;;;;;;11.02;3.03;;;;;;;;;;5053172;28;20124;-86
2023/08/26 04:20:23;;;;;;;9.30;2.63;;;;;;;;;;5047070;28;20042;-86
2023/08/26 04:22:48;;;;;;;14.13;3.08;;;;;;;;;;5055311;28;20029;-87
2023/08/26 04:25:13;;;;;;;12.02;2.50;;;;;;;;;;5042259;28;20147;-86
2023/08/26 04:27:39;;;;;;;10.98;3.10;;;;;;;;;;5046088;28;20021;-86
2023/08/26 04:30:12;;;;;;;8.25;2.55;;;;;;;;;;5048966;28;20020;-86
2023/08/26 04:32:47;;;;;;;8.77;2.47;;;;;;;;;;5058041;28;20017;-85
2023/08/26 04:35:13;;;;;;;10.70;2.60;;;;;;;;;;5040499;28;20037;-85
2023/08/26 04:37:39;;;;;;;8.30;2.40;;;;;;;;;;5036129;28;20017;-85
2023/08/26 04:40:13;;;;;;;9.98;2.90;;;;;;;;;;5035208;28;20024;-85
2023/08/26 04:42:41;;;;;;;17.67;3.03;;;;;;;;;;5034914;28;20025;-85
2023/08/26 04:45:08;;;;;;;6.82;2.20;;;;;;;;;;5035084;28;20033;-85
2023/08/26 04:47:33;;;;;;;6.07;2.35;;;;;;;;;;5036434;28;20052;-86
2023/08/26 04:49:58;;;;;;;9.55;2.75;;;;;;;;;;5035014;28;20048;-85
2023/08/26 04:52:24;;;;;;;7.72;2.17;;;;;;;;;;5035148;28;20020;-85
2023/08/26 04:54:50;;;;;;;6.70;1.75;;;;;;;;;;5049610;28;20531;-86
2023/08/26 04:57:16;;;;;;;5.95;2.10;;;;;;;;;;5050182;28;20016;-85
2023/08/26 04:59:42;;;;;;;12.90;1.90;;;;;;;;;;5055133;28;20029;-85
2023/08/26 05:02:07;;;;;;;9.90;2.17;;;;;;;;;;5048535;28;20427;-86
2023/08/26 05:04:36;;;;;;;9.18;1.98;;;;;;;;;;5056700;28;20484;-86
2023/08/26 05:07:01;;;;;;;13.80;2.13;;;;;;;;;;5037736;28;20371;-86
2023/08/26 05:09:28;;;;;;;3.63;1.70;;;;;;;;;;5038620;28;20025;-85
2023/08/26 05:11:55;;;;;;;7.78;1.70;;;;;;;;;;5044407;28;20029;-86
2023/08/26 05:14:21;;;;;;;4.68;1.40;;;;;;;;;;5046235;28;20024;-86
2023/08/26 05:16:46;;;;;;;3.10;1.38;;;;;;;;;;5042593;28;20017;-86
2023/08/26 05:19:11;;;;;;;9.65;1.95;;;;;;;;;;5038127;28;20115;-86
2023/08/26 05:21:37;;;;;;;7.15;1.80;;;;;;;;;;5039528;28;20025;-86
2023/08/26 05:24:03;;;;;;;5.07;1.60;;;;;;;;;;5047800;28;20078;-86
2023/08/26 05:26:28;;;;;;;10.90;1.30;;;;;;;;;;5061186;28;20044;-85
2023/08/26 05:28:54;;;;;;;5.97;1.60;;;;;;;;;;5038875;28;20425;-86
2023/08/26 05:31:19;;;;;;;6.40;1.75;;;;;;;;;;5051563;28;20020;-85
2023/08/26 05:33:45;;;;;;;5.85;1.42;;;;;;;;;;5047640;28;20021;-87
2023/08/26 05:36:11;;;;;;;7.90;1.50;;;;;;;;;;5042933;28;20096;-86
2023/08/26 05:38:37;;;;;;;4.70;1.33;;;;;;;;;;5052354;28;20120;-87
2023/08/26 05:41:02;;;;;;;4.65;1.50;;;;;;;;;;5041670;28;20040;-87
2023/08/26 05:43:30;;;;;;;5.20;1.63;;;;;;;;;;5061797;28;20027;-86
2023/08/26 05:45:58;;;;;;;6.97;1.70;;;;;;;;;;5040785;28;20024;-87
2023/08/26 05:48:23;;;;;;;6.05;1.48;;;;;;;;;;5065371;28;20188;-87
2023/08/26 05:50:49;;;;;;;4.53;1.70;;;;;;;;;;5046642;28;20043;-87
2023/08/26 05:53:14;;;;;;;5.60;1.50;;;;;;;;;;5051597;28;20017;-87
2023/08/26 05:55:43;;;;;;;4.28;1.45;;;;;;;;;;5037566;28;20031;-86
2023/08/26 05:58:09;;;;;;;2.33;1.40;;;;;;;;;;5037671;28;20032;-85
2023/08/26 06:00:34;;;;;;;4.07;1.02;;;;;;;;;;5049265;28;20468;-86
2023/08/26 06:03:00;;;;;;;6.38;1.13;;;;;;;;;;5042961;28;20507;-86
2023/08/26 06:05:26;;;;;;;2.50;1.08;;;;;;;;;;5049195;28;20066;-87
2023/08/26 06:07:53;;;;;;;4.82;1.33;;;;;;;;;;5037498;28;20468;-87
2023/08/26 06:10:26;;;;;;;2.50;1.10;;;;;;;;;;5057906;28;20464;-88
2023/08/26 06:12:51;;;;;;;3.85;1.25;;;;;;;;;;5043490;28;20082;-87
2023/08/26 06:15:20;;;;;;;4.50;1.00;;;;;;;;;;5037643;28;20025;-88
2023/08/26 06:17:45;;;;;;;5.18;1.40;;;;;;;;;;5037273;28;20044;-88
2023/08/26 06:20:11;;;;;;;9.68;1.50;;;;;;;;;;5051788;28;20025;-87
2023/08/26 06:22:36;;;;;;;2.95;1.30;;;;;;;;;;5037315;28;20025;-86
2023/08/26 06:25:01;;;;;;;3.83;1.27;;;;;;;;;;5055116;28;20025;-87
2023/08/26 06:27:27;;;;;;;4.97;1.60;;;;;;;;;;5036501;28;20025;-87
2023/08/26 06:29:58;;;;;;;8.82;1.30;;;;;;;;;;5051249;28;20024;-87
2023/08/26 06:32:24;;;;;;;5.10;1.37;;;;;;;;;;5042273;28;20044;-87
2023/08/26 06:34:49;;;;;;;5.65;1.25;;;;;;;;;;5032977;28;20262;-87
2023/08/26 06:37:15;;;;;;;4.35;1.25;;;;;;;;;;5039537;28;20128;-87
2023/08/26 06:39:40;;;;;;;6.35;1.42;;;;;;;;;;5047982;28;20082;-88
2023/08/26 06:42:06;;;;;;;3.33;1.35;;;;;;;;;;5057040;28;20082;-87
2023/08/26 06:44:31;;;;;;;6.00;1.85;;;;;;;;;;5035890;28;20021;-87
2023/08/26 06:46:56;;;;;;;5.55;1.35;;;;;;;;;;5038066;28;20120;-87
2023/08/26 06:49:22;;;;;;;5.53;1.50;;;;;;;;;;5037428;28;20032;-87
2023/08/26 06:51:47;;;;;;;5.72;1.33;;;;;;;;;;5037234;28;20537;-87
2023/08/26 06:54:13;;;;;;;3.90;1.20;;;;;;;;;;5036676;28;20066;-87
2023/08/26 06:56:38;;;;;;;4.43;1.35;;;;;;;;;;5037009;28;20024;-87
2023/08/26 06:59:04;;;;;;;8.52;1.38;;;;;;;;;;5056206;28;20043;-87
2023/08/26 07:01:31;;;;;;;7.20;1.08;;;;;;;;;;5052603;28;20048;-87
2023/08/26 07:04:03;;;;;;;3.78;1.77;;;;;;;;;;5037761;28;20097;-87
2023/08/26 07:06:31;;;;;;;5.07;1.52;;;;;;;;;;5038361;28;20017;-87
2023/08/26 07:08:56;;;;;;;7.80;1.25;;;;;;;;;;5036902;28;20098;-86
2023/08/26 07:11:22;;;;;;;2.67;1.20;;;;;;;;;;5032939;28;20046;-87
2023/08/26 07:13:47;;;;;;;4.05;1.20;;;;;;;;;;5025590;28;20044;-86
2023/08/26 07:16:12;;;;;;;3.00;0.93;;;;;;;;;;5046635;28;20021;-87
2023/08/26 07:18:38;;;;;;;6.80;1.52;;;;;;;;;;5034722;28;20025;-87
2023/08/26 07:21:03;;;;;;;7.18;1.30;;;;;;;;;;5036233;28;20028;-87
2023/08/26 07:23:29;;;;;;;2.60;0.80;;;;;;;;;;5033299;28;20048;-87
2023/08/26 07:25:54;;;;;;;3.60;1.10;;;;;;;;;;5035343;28;20024;-87
2023/08/26 07:28:19;;;;;;;2.80;1.20;;;;;;;;;;5046971;28;20107;-85
2023/08/26 07:30:51;;;;;;;4.20;1.50;;;;;;;;;;5036208;28;20032;-87
2023/08/26 07:33:16;;;;;;;4.47;1.30;;;;;;;;;;5035393;28;20024;-87
2023/08/26 07:35:42;;;;;;;9.15;1.10;;;;;;;;;;5035707;28;20017;-87
2023/08/26 07:38:10;;;;;;;4.20;0.93;;;;;;;;;;5035832;28;20057;-87
2023/08/26 07:40:35;;;;;;;3.10;1.00;;;;;;;;;;5034485;28;20021;-87
2023/08/26 07:43:03;;;;;;;4.57;0.40;;;;;;;;;;5034195;28;20090;-88
2023/08/26 07:45:28;;;;;;;3.97;1.08;;;;;;;;;;5048046;28;20024;-88
2023/08/26 07:47:54;;;;;;;4.82;1.05;;;;;;;;;;5035745;28;20033;-87
2023/08/26 07:50:19;;;;;;;2.95;1.10;;;;;;;;;;5034271;28;20036;-88
2023/08/26 07:52:44;;;;;;;6.15;0.98;;;;;;;;;;5035239;28;20028;-88
2023/08/26 07:55:10;;;;;;;2.42;0.95;;;;;;;;;;5037610;28;20024;-87
2023/08/26 07:57:35;;;;;;;2.88;0.98;;;;;;;;;;5051759;28;20039;-89
2023/08/26 08:00:02;;;;;;;2.80;0.93;;;;;;;;;;5035549;28;20083;-88
2023/08/26 08:02:27;;;;;;;7.50;1.00;;;;;;;;;;5046931;28;20027;-87
2023/08/26 08:04:53;;;;;;;4.15;0.90;;;;;;;;;;5035434;28;20013;-87
2023/08/26 08:07:18;;;;;;;1.10;0.57;;;;;;;;;;5035487;28;20541;-87
2023/08/26 08:09:43;;;;;;;4.38;1.02;;;;;;;;;;5038746;28;20457;-85
2023/08/26 08:12:09;;;;;;;3.15;1.05;;;;;;;;;;5043390;28;20135;-85
2023/08/26 08:14:34;;;;;;;3.22;1.38;;;;;;;;;;5041171;28;20086;-87
2023/08/26 08:16:59;;;;;;;1.58;0.75;;;;;;;;;;5049841;28;20045;-86
2023/08/26 08:19:25;;;;;;;1.67;0.60;;;;;;;;;;5038910;28;20017;-87
2023/08/26 08:21:50;;;;;;;2.75;0.90;;;;;;;;;;5039475;28;20024;-87
2023/08/26 08:24:15;;;;;;;3.22;0.80;;;;;;;;;;5055660;28;20030;-88
2023/08/26 08:26:43;;;;;;;6.53;0.80;;;;;;;;;;5053697;28;20056;-87
2023/08/26 08:29:10;;;;;;;4.20;0.80;;;;;;;;;;5035577;28;20384;-88
2023/08/26 08:31:35;;;;;;;2.50;0.82;;;;;;;;;;5054055;28;20023;-89
2023/08/26 08:34:01;;;;;;;3.67;0.70;;;;;;;;;;5052184;28;20021;-87
2023/08/26 08:36:26;;;;;;;2.03;0.90;;;;;;;;;;5048365;28;20028;-85
2023/08/26 08:38:51;;;;;;;4.53;0.80;;;;;;;;;;5039901;28;20032;-84
2023/08/26 08:41:18;;;;;;;2.10;0.63;;;;;;;;;;5039289;28;20021;-85
2023/08/26 08:43:45;;;;;;;3.42;0.70;;;;;;;;;;5049200;28;20024;-85
2023/08/26 08:46:12;;;;;;;3.03;0.80;;;;;;;;;;5034324;28;20043;-86
2023/08/26 08:48:38;;;;;;;3.58;0.90;;;;;;;;;;5038793;28;20028;-85
2023/08/26 08:51:04;;;;;;;4.13;0.80;;;;;;;;;;5042045;28;20440;-87
2023/08/26 08:53:38;;;;;;;5.25;0.90;;;;;;;;;;5039213;28;20083;-86
2023/08/26 08:56:06;;;;;;;8.38;0.90;;;;;;;;;;5038531;28;20017;-86
2023/08/26 08:58:32;;;;;;;2.35;1.00;;;;;;;;;;5043228;28;20060;-86
2023/08/26 09:00:58;;;;;;;5.20;1.05;;;;;;;;;;5038160;28;20028;-86
2023/08/26 09:03:24;;;;;;;4.05;0.98;;;;;;;;;;5049081;28;20025;-85
2023/08/26 09:05:50;;;;;;;2.28;0.90;;;;;;;;;;5056305;28;20029;-86
2023/08/26 09:08:17;;;;;;;4.90;1.02;;;;;;;;;;5035393;28;20429;-85
2023/08/26 09:10:47;;;;;;;1.58;0.70;;;;;;;;;;5038501;28;20032;-86
2023/08/26 09:13:12;;;;;;;2.15;0.70;;;;;;;;;;5040152;28;20447;-87
2023/08/26 09:15:38;;;;;;;1.90;0.60;;;;;;;;;;5049399;28;20033;-87
2023/08/26 09:18:07;;;;;;;2.50;0.80;;;;;;;;;;5053214;28;20024;-88
2023/08/26 09:20:34;;;;;;;4.45;0.90;;;;;;;;;;5050501;28;20027;-87
2023/08/26 09:23:03;;;;;;;2.28;0.80;;;;;;;;;;5049336;28;20107;-87
2023/08/26 09:25:30;;;;;;;2.38;0.65;;;;;;;;;;5036294;28;20036;-87
2023/08/26 09:27:55;;;;;;;3.45;1.00;;;;;;;;;;5044641;28;20033;-88
2023/08/26 09:30:21;;;;;;;1.05;0.57;;;;;;;;;;5037324;28;20101;-87
2023/08/26 09:32:49;;;;;;;6.28;1.40;;;;;;;;;;5047719;28;20021;-87
2023/08/26 09:35:15;;;;;;;4.72;0.90;;;;;;;;;;5046085;28;20086;-87
2023/08/26 09:37:48;;;;;;;2.25;0.57;;;;;;;;;;5046390;28;20058;-89
2023/08/26 09:40:21;;;;;;;4.25;0.70;;;;;;;;;;5039265;28;20107;-87
2023/08/26 09:42:47;;;;;;;3.05;0.52;;;;;;;;;;5045531;28;20016;-87
2023/08/26 09:45:21;;;;;;;1.85;0.77;;;;;;;;;;5040658;28;20024;-88
2023/08/26 09:47:47;;;;;;;2.35;0.68;;;;;;;;;;5045397;28;20371;-88
2023/08/26 09:50:15;;;;;;;2.92;1.00;;;;;;;;;;5048397;28;20021;-88
2023/08/26 09:52:42;;;;;;;1.00;0.50;;;;;;;;;;5037473;28;20020;-88
2023/08/26 09:55:08;;;;;;;1.05;0.40;;;;;;;;;;5038083;28;20338;-88
2023/08/26 09:57:34;;;;;;;0.80;0.63;;;;;;;;;;5037473;28;20515;-87
2023/08/26 09:59:59;;;;;;;0.68;0.50;;;;;;;;;;5044844;28;20047;-88
2023/08/26 10:02:25;;;;;;;3.83;0.65;;;;;;;;;;5048096;28;20021;-87
2023/08/26 10:04:52;;;;;;;2.47;1.00;;;;;;;;;;5051801;28;20013;-86
2023/08/26 10:07:17;;;;;;;1.90;0.70;;;;;;;;;;5035198;28;20108;-87
2023/08/26 10:09:46;;;;;;;6.38;0.93;;;;;;;;;;5034340;28;20462;-86
2023/08/26 10:12:28;;;;;;;2.78;0.80;;;;;;;;;;5034997;28;20025;-84
2023/08/26 10:14:54;;;;;;;7.18;0.90;;;;;;;;;;5038947;28;20364;-84
2023/08/26 10:17:20;;;;;;;1.15;0.47;;;;;;;;;;5036491;28;20167;-84
2023/08/26 10:19:49;;;;;;;3.67;0.65;;;;;;;;;;5036940;28;20071;-84
2023/08/26 10:22:14;;;;;;;4.60;1.27;;;;;;;;;;5048594;28;20021;-84
2023/08/26 10:24:39;;;;;;;4.07;0.85;;;;;;;;;;5036187;28;20027;-84
2023/08/26 10:27:08;;;;;;;1.05;0.50;;;;;;;;;;5038175;28;20024;-84
2023/08/26 10:29:37;;;;;;;2.63;0.65;;;;;;;;;;5035831;28;20025;-84
2023/08/26 10:32:22;;;;;;;1.33;0.70;;;;;;;;;;5054421;28;20431;-83
2023/08/26 10:34:56;;;;;;;3.45;0.80;;;;;;;;;;5038946;28;20067;-84
2023/08/26 10:37:25;;;;;;;7.82;0.80;;;;;;;;;;5022493;28;20324;-84
2023/08/26 10:39:50;;;;;;;3.10;0.82;;;;;;;;;;5032590;28;20385;-85
2023/08/26 10:42:19;;;;;;;1.55;0.43;;;;;;;;;;5035625;28;20015;-85
2023/08/26 10:44:52;;;;;;;4.05;0.73;;;;;;;;;;5053955;28;20070;-84
2023/08/26 10:47:37;;;;;;;1.70;0.50;;;;;;;;;;5048625;28;20017;-84
2023/08/26 10:50:15;;;;;;;4.78;0.90;;;;;;;;;;5035574;28;20044;-85
2023/08/26 10:52:41;;;;;;;0.93;0.60;;;;;;;;;;5031638;28;20025;-84
2023/08/26 10:55:32;;;;;;;1.92;0.57;;;;;;;;;;5061098;28;20103;-84
2023/08/26 10:58:01;;;;;;;0.95;0.60;;;;;;;;;;5045083;28;20356;-84
2023/08/26 11:00:26;;;;;;;2.88;0.60;;;;;;;;;;5032626;28;20503;-85
2023/08/26 11:02:52;;;;;;;1.58;0.52;;;;;;;;;;5035257;28;20021;-84
2023/08/26 11:05:20;;;;;;;5.28;0.95;;;;;;;;;;5035211;28;20036;-84
2023/08/26 11:07:45;;;;;;;3.10;0.65;;;;;;;;;;5035086;28;20025;-84
2023/08/26 11:10:33;;;;;;;1.60;0.63;;;;;;;;;;5047156;28;20074;-84
2023/08/26 11:12:59;;;;;;;1.92;0.60;;;;;;;;;;5047363;28;20030;-84
2023/08/26 11:15:27;;;;;;;1.80;0.70;;;;;;;;;;5032260;28;20074;-83
2023/08/26 11:17:53;;;;;;;2.38;0.65;;;;;;;;;;5046853;28;20032;-84
2023/08/26 11:20:18;;;;;;;4.20;0.60;;;;;;;;;;5035356;28;20021;-84
2023/08/26 11:22:44;;;;;;;4.03;1.35;;;;;;;;;;5040278;28;20055;-85
2023/08/26 11:25:16;;;;;;;1.88;0.52;;;;;;;;;;5055723;28;20017;-86
2023/08/26 11:27:41;;;;;;;;;;;;;;;;;;5040374;28;20266;-85
2023/08/26 11:30:10;;;;;;;2.10;0.70;;;;;;;;;;5036126;28;19927;-85
2023/08/26 11:32:39;;;;;;;0.80;0.50;;;;;;;;;;5031269;28;20021;-85
2023/08/26 11:35:05;;;;;;;3.90;0.70;;;;;;;;;;5043416;28;20117;-85
2023/08/26 11:37:32;;;;;;;2.13;0.77;;;;;;;;;;5058958;28;20021;-84
2023/08/26 11:40:01;;;;;;;3.25;0.47;;;;;;;;;;5035640;28;20443;-85
2023/08/26 11:42:26;;;;;;;1.10;0.60;;;;;;;;;;5035687;28;20048;-85
2023/08/26 11:44:52;;;;;;;1.17;0.60;;;;;;;;;;5034881;28;20040;-85
2023/08/26 11:47:17;;;;;;;1.20;0.60;;;;;;;;;;5031816;28;20433;-84
2023/08/26 11:49:43;;;;;;;1.10;0.70;;;;;;;;;;5060005;28;20037;-85
2023/08/26 11:52:09;;;;;;;1.25;0.60;;;;;;;;;;5035358;28;20017;-85
2023/08/26 11:54:34;;;;;;;2.20;0.80;;;;;;;;;;5048885;28;20066;-84
2023/08/26 11:57:00;;;;;;;6.13;1.05;;;;;;;;;;5035350;28;20021;-85
2023/08/26 11:59:27;;;;;;;2.65;0.60;;;;;;;;;;5042779;28;20498;-85
2023/08/26 12:01:53;;;;;;;4.15;0.60;;;;;;;;;;5034654;28;20037;-86
2023/08/26 12:04:18;;;;;;;0.85;0.50;;;;;;;;;;5028361;28;20029;-85
2023/08/26 12:06:44;;;;;;;5.07;0.93;;;;;;;;;;5034827;28;20049;-85
2023/08/26 12:09:11;;;;;;;3.40;0.50;;;;;;;;;;5034094;28;20020;-84
2023/08/26 12:11:40;;;;;;;2.78;0.70;;;;;;;;;;5027858;28;20101;-84
2023/08/26 12:14:18;;;;;;;1.02;0.50;;;;;;;;;;5035373;28;20480;-84
2023/08/26 12:16:44;;;;;;;2.42;0.43;;;;;;;;;;5034713;28;20026;-86
2023/08/26 12:19:29;;;;;;;0.60;0.47;;;;;;;;;;5034653;28;20070;-87
2023/08/26 12:21:57;;;;;;;1.17;0.30;;;;;;;;;;5056671;28;20008;-86
2023/08/26 12:24:26;;;;;;;1.83;0.60;;;;;;;;;;5026105;28;20045;-87
2023/08/26 12:26:51;;;;;;;3.15;0.80;;;;;;;;;;5034604;28;20025;-87
2023/08/26 12:29:17;;;;;;;1.80;0.50;;;;;;;;;;5027431;28;20234;-86
2023/08/26 12:31:43;;;;;;;1.85;0.57;;;;;;;;;;5043451;28;20371;-88
2023/08/26 12:34:09;;;;;;;0.57;0.25;;;;;;;;;;5034955;28;20014;-87
2023/08/26 12:36:34;;;;;;;3.53;0.50;;;;;;;;;;5039412;28;20093;-88
2023/08/26 12:39:02;;;;;;;2.72;0.50;;;;;;;;;;5033603;28;20021;-87
2023/08/26 12:41:27;;;;;;;0.90;0.30;;;;;;;;;;5045611;28;20028;-88
2023/08/26 12:43:55;;;;;;;1.30;0.55;;;;;;;;;;5043268;28;20083;-87
2023/08/26 12:46:23;;;;;;;1.58;0.50;;;;;;;;;;5044832;28;20349;-88
2023/08/26 12:48:49;;;;;;;4.22;0.50;;;;;;;;;;5040242;28;20025;-87
2023/08/26 12:51:14;;;;;;;0.68;0.35;;;;;;;;;;5036026;28;20377;-87
2023/08/26 12:53:40;;;;;;;0.40;0.40;;;;;;;;;;5034960;28;20035;-87
2023/08/26 12:56:06;;;;;;;1.65;0.85;;;;;;;;;;5034858;28;20024;-87
2023/08/26 12:58:31;;;;;;;0.40;0.20;;;;;;;;;;5030989;28;20437;-87
2023/08/26 13:00:57;;;;;;;1.35;0.50;;;;;;;;;;5029534;28;20029;-87
2023/08/26 13:03:22;;;;;;;1.67;0.40;;;;;;;;;;5016940;28;20071;-88
2023/08/26 13:05:51;;;;;;;1.02;0.30;;;;;;;;;;5029831;28;20124;-88
2023/08/26 13:08:17;;;;;;;1.20;0.32;;;;;;;;;;5031171;28;20028;-87
2023/08/26 13:10:42;;;;;;;0.93;0.28;;;;;;;;;;5031170;28;20025;-88
2023/08/26 13:13:08;;;;;;;0.77;0.40;;;;;;;;;;5033275;28;20036;-87
2023/08/26 13:15:37;;;;;;;1.77;0.55;;;;;;;;;;5034027;28;20088;-87
2023/08/26 13:18:03;;;;;;;0.90;0.50;;;;;;;;;;5033083;28;20064;-87
2023/08/26 13:20:28;;;;;;;0.40;0.30;;;;;;;;;;5044928;28;20027;-85
2023/08/26 13:22:53;;;;;;;2.22;0.40;;;;;;;;;;5039276;28;20475;-86
2023/08/26 13:25:19;;;;;;;1.00;0.20;;;;;;;;;;5037484;28;20074;-85
2023/08/26 13:27:44;;;;;;;1.15;0.45;;;;;;;;;;5037221;28;20594;-86
2023/08/26 13:30:10;;;;;;;1.08;0.40;;;;;;;;;;5034648;28;20032;-85
2023/08/26 13:32:35;;;;;;;1.90;0.35;;;;;;;;;;5033032;28;20017;-85
2023/08/26 13:35:03;;;;;;;0.20;0.15;;;;;;;;;;5036440;28;20020;-85
2023/08/26 13:37:28;;;;;;;1.42;0.35;;;;;;;;;;5049752;28;20460;-85
2023/08/26 13:39:53;;;;;;;1.23;0.40;;;;;;;;;;5035190;28;20039;-85
2023/08/26 13:42:19;;;;;;;0.47;0.30;;;;;;;;;;5051400;28;20082;-85
2023/08/26 13:44:44;;;;;;;1.40;0.45;;;;;;;;;;5037235;28;20025;-86
2023/08/26 13:47:09;;;;;;;4.10;0.43;;;;;;;;;;5035675;28;20082;-85
2023/08/26 13:49:37;;;;;;;1.40;0.43;;;;;;;;;;5036738;28;20027;-85
2023/08/26 13:52:02;;;;;;;4.00;0.60;;;;;;;;;;5047917;28;20016;-86
2023/08/26 13:54:28;;;;;;;0.30;0.20;;;;;;;;;;5040096;28;20025;-86
2023/08/26 13:56:53;;;;;;;2.90;0.60;;;;;;;;;;5037038;28;20021;-86
2023/08/26 13:59:18;;;;;;;0.90;0.40;;;;;;;;;;5039445;28;20029;-86
2023/08/26 14:01:46;;;;;;;1.02;0.20;;;;;;;;;;5054593;28;20025;-86
2023/08/26 14:04:12;;;;;;;1.45;0.68;;;;;;;;;;5048892;28;20025;-86
2023/08/26 14:06:37;;;;;;;2.47;0.50;;;;;;;;;;5036430;28;20021;-85
2023/08/26 14:09:07;;;;;;;1.50;0.60;;;;;;;;;;5039270;28;20071;-86
2023/08/26 14:11:32;;;;;;;1.27;0.40;;;;;;;;;;5035444;28;20427;-86
2023/08/26 14:13:58;;;;;;;0.85;0.50;;;;;;;;;;5036200;28;20021;-85
2023/08/26 14:16:23;;;;;;;1.27;0.65;;;;;;;;;;5039016;28;20044;-87
2023/08/26 14:18:53;;;;;;;6.30;0.38;;;;;;;;;;5055494;28;20028;-87
2023/08/26 14:21:18;;;;;;;2.45;0.50;;;;;;;;;;5053068;28;20017;-87
2023/08/26 14:23:44;;;;;;;2.20;0.50;;;;;;;;;;5037187;28;20055;-87
2023/08/26 14:26:10;;;;;;;0.40;0.30;;;;;;;;;;5055934;28;20017;-85
2023/08/26 14:28:35;;;;;;;0.70;0.40;;;;;;;;;;5039661;28;20087;-85
2023/08/26 14:31:00;;;;;;;1.65;0.50;;;;;;;;;;5037606;28;20154;-85
2023/08/26 14:33:29;;;;;;;3.45;0.73;;;;;;;;;;5040499;28;20028;-86
2023/08/26 14:35:55;;;;;;;0.45;0.30;;;;;;;;;;5050239;28;20078;-86
2023/08/26 14:38:23;;;;;;;0.60;0.22;;;;;;;;;;5034281;28;20500;-86
2023/08/26 14:40:49;;;;;;;1.73;0.40;;;;;;;;;;5042167;28;20375;-86
2023/08/26 14:43:14;;;;;;;0.73;0.30;;;;;;;;;;5045168;28;20037;-86